Time;durP1;ratioP1;P1;durP2;ratioP2;P2;SDS_P1;SDS_P2;PMS_P1;PMS_P2;Temp;Humidity;BMP_temperature;BMP_pressure;BME280_temperature;BME280_humidity;BME280_pressure;Samples;Min_cycle;Max_cycle;Signal;HPM_P1;HPM_P2
2022/02/24 00:02:18;;;;;;;;;;;9.50;76.60;;;;;;5079070;28;20291;-73
2022/02/24 00:04:44;;;;;;;;;;;9.50;76.60;;;;;;5079243;28;19908;-73
2022/02/24 00:07:10;;;;;;;;;;;9.50;76.70;;;;;;5078970;28;19916;-73
2022/02/24 00:09:35;;;;;;;;;;;9.50;76.70;;;;;;5079353;28;20276;-73
2022/02/24 00:12:04;;;;;;;;;;;9.50;76.70;;;;;;5078748;28;19908;-72
2022/02/24 00:14:30;;;;;;;;;;;9.50;76.70;;;;;;5079360;28;19913;-73
2022/02/24 00:16:56;;;;;;;;;;;9.50;76.90;;;;;;5078913;28;19981;-73
2022/02/24 00:19:21;;;;;;;;;;;9.50;76.90;;;;;;5079142;28;19912;-73
2022/02/24 00:21:47;;;;;;;;;;;9.50;77.00;;;;;;5078767;28;19908;-73
2022/02/24 00:24:12;;;;;;;;;;;9.50;76.90;;;;;;5078830;28;19908;-73
2022/02/24 00:26:38;;;;;;;;;;;9.40;76.90;;;;;;5060528;28;19914;-73
2022/02/24 00:29:04;;;;;;;;;;;9.50;76.90;;;;;;5078808;28;20003;-73
2022/02/24 00:31:30;;;;;;;;;;;9.50;76.70;;;;;;5078893;28;19912;-73
2022/02/24 00:33:55;;;;;;;;;;;9.50;76.80;;;;;;5078791;28;19909;-73
2022/02/24 00:36:21;;;;;;;;;;;9.50;76.70;;;;;;5060581;28;19914;-73
2022/02/24 00:38:47;;;;;;;;;;;9.50;76.60;;;;;;5078512;28;20280;-73
2022/02/24 00:41:12;;;;;;;;;;;9.50;76.70;;;;;;5078287;28;20136;-73
2022/02/24 00:43:38;;;;;;;;;;;9.50;76.70;;;;;;5060007;28;19928;-73
2022/02/24 00:46:04;;;;;;;;;;;9.50;76.70;;;;;;5056374;28;19921;-73
2022/02/24 00:48:30;;;;;;;;;;;9.50;76.80;;;;;;5069191;28;19908;-73
2022/02/24 00:50:55;;;;;;;;;;;9.50;76.80;;;;;;5078261;28;19908;-73
2022/02/24 00:53:21;;;;;;;;;;;9.50;76.90;;;;;;5078415;28;20319;-73
2022/02/24 00:55:46;;;;;;;;;;;9.40;76.80;;;;;;5060125;28;20405;-73
2022/02/24 00:58:12;;;;;;;;;;;9.40;77.00;;;;;;5059999;28;20004;-73
2022/02/24 01:00:38;;;;;;;;;;;9.40;77.10;;;;;;5078132;28;19940;-73
2022/02/24 01:03:03;;;;;;;;;;;9.40;77.20;;;;;;5078199;28;20003;-73
2022/02/24 01:05:29;;;;;;;;;;;9.50;77.40;;;;;;5077938;28;20043;-73
2022/02/24 01:07:54;;;;;;;;;;;9.40;77.50;;;;;;5078424;28;19909;-73
2022/02/24 01:10:20;;;;;;;;;;;9.40;77.60;;;;;;5077579;28;19916;-73
2022/02/24 01:12:46;;;;;;;;;;;9.40;77.90;;;;;;5077811;28;19915;-73
2022/02/24 01:15:12;;;;;;;;;;;9.40;77.80;;;;;;5077956;28;20664;-73
2022/02/24 01:17:39;;;;;;;;;;;9.40;78.10;;;;;;5078014;28;20004;-73
2022/02/24 01:20:05;;;;;;;;;;;9.50;78.60;;;;;;5077836;28;20323;-73
2022/02/24 01:22:31;;;;;;;;;;;9.50;79.30;;;;;;5077962;28;19909;-73
2022/02/24 01:24:57;;;;;;;;;;;9.50;79.80;;;;;;5077705;28;19971;-73
2022/02/24 01:27:22;;;;;;;;;;;9.50;80.70;;;;;;5077836;28;19967;-73
2022/02/24 01:29:48;;;;;;;;;;;9.50;80.70;;;;;;5077765;28;20383;-72
2022/02/24 01:32:14;;;;;;;;;;;9.40;80.50;;;;;;5077853;28;19915;-73
2022/02/24 01:34:39;;;;;;;;;;;9.40;81.00;;;;;;5077611;28;19909;-73
2022/02/24 01:37:05;;;;;;;;;;;9.50;81.50;;;;;;5060054;28;19908;-73
2022/02/24 01:39:30;;;;;;;;;;;9.40;81.60;;;;;;5073030;28;20007;-73
2022/02/24 01:41:56;;;;;;;;;;;9.40;81.80;;;;;;5069489;28;19908;-73
2022/02/24 01:44:22;;;;;;;;;;;9.40;81.20;;;;;;5077443;28;19921;-73
2022/02/24 01:46:49;;;;;;;;;;;9.30;81.30;;;;;;5067544;28;19964;-73
2022/02/24 01:49:14;;;;;;;;;;;9.30;80.80;;;;;;5074569;28;19908;-73
2022/02/24 01:51:41;;;;;;;;;;;9.30;81.60;;;;;;5077829;28;19909;-73
2022/02/24 01:54:06;;;;;;;;;;;9.30;81.50;;;;;;5077682;28;19962;-73
2022/02/24 01:56:32;;;;;;;;;;;9.30;81.30;;;;;;5077581;28;19995;-73
2022/02/24 01:58:58;;;;;;;;;;;9.30;81.30;;;;;;5077296;28;20361;-73
2022/02/24 02:01:24;;;;;;;;;;;9.30;81.30;;;;;;5077686;28;19956;-73
2022/02/24 02:03:51;;;;;;;;;;;9.30;81.00;;;;;;5077132;28;19913;-73
2022/02/24 02:06:18;;;;;;;;;;;9.30;81.30;;;;;;5059463;28;20395;-73
2022/02/24 02:08:43;;;;;;;;;;;9.30;81.40;;;;;;5077246;28;20358;-73
2022/02/24 02:11:09;;;;;;;;;;;9.20;81.20;;;;;;5059396;28;19912;-73
2022/02/24 02:13:35;;;;;;;;;;;9.20;81.30;;;;;;5077063;28;19915;-73
2022/02/24 02:16:01;;;;;;;;;;;9.20;81.60;;;;;;5077538;28;19915;-73
2022/02/24 02:18:26;;;;;;;;;;;9.20;81.50;;;;;;5059165;28;19912;-73
2022/02/24 02:20:52;;;;;;;;;;;9.20;81.60;;;;;;5078115;28;19908;-73
2022/02/24 02:23:18;;;;;;;;;;;9.20;81.70;;;;;;5081057;28;19909;-73
2022/02/24 02:25:44;;;;;;;;;;;9.20;82.20;;;;;;5081239;28;19909;-73
2022/02/24 02:28:13;;;;;;;;;;;9.20;82.30;;;;;;5080714;28;19908;-73
2022/02/24 02:30:39;;;;;;;;;;;9.20;82.70;;;;;;5081245;28;20442;-73
2022/02/24 02:33:04;;;;;;;;;;;9.20;82.40;;;;;;5081024;28;19909;-73
2022/02/24 02:35:30;;;;;;;;;;;9.20;82.50;;;;;;5063039;28;19908;-73
2022/02/24 02:37:57;;;;;;;;;;;9.20;82.90;;;;;;5080725;28;19917;-73
2022/02/24 02:40:23;;;;;;;;;;;9.20;83.00;;;;;;5080818;28;19908;-73
2022/02/24 02:42:50;;;;;;;;;;;9.20;83.20;;;;;;5062400;28;20335;-74
2022/02/24 02:45:15;;;;;;;;;;;9.20;84.10;;;;;;5062815;28;19912;-72
2022/02/24 02:47:41;;;;;;;;;;;9.30;84.00;;;;;;5067242;28;19909;-73
2022/02/24 02:50:07;;;;;;;;;;;9.20;83.70;;;;;;5081016;28;19916;-73
2022/02/24 02:52:33;;;;;;;;;;;9.20;84.00;;;;;;5080506;28;19909;-73
2022/02/24 02:55:01;;;;;;;;;;;9.20;83.90;;;;;;5080671;28;19908;-73
2022/02/24 02:57:27;;;;;;;;;;;9.20;83.80;;;;;;5080210;28;19908;-73
2022/02/24 02:59:52;;;;;;;;;;;9.20;84.00;;;;;;5081001;28;19913;-73
2022/02/24 03:02:18;;;;;;;;;;;9.20;84.00;;;;;;5080229;28;19916;-73
2022/02/24 03:04:44;;;;;;;;;;;9.20;84.00;;;;;;5080389;28;19931;-73
2022/02/24 03:07:09;;;;;;;;;;;9.20;84.30;;;;;;5080263;28;20393;-73
2022/02/24 03:09:36;;;;;;;;;;;9.20;84.30;;;;;;5062337;28;19909;-73
2022/02/24 03:12:02;;;;;;;;;;;9.20;84.90;;;;;;5079939;28;20342;-73
2022/02/24 03:14:27;;;;;;;;;;;9.30;86.30;;;;;;5080332;28;19932;-73
2022/02/24 03:16:53;;;;;;;;;;;9.20;86.90;;;;;;5080089;28;19909;-73
2022/02/24 03:19:19;;;;;;;;;;;9.20;87.10;;;;;;5080451;28;20302;-73
2022/02/24 03:21:45;;;;;;;;;;;9.20;86.60;;;;;;5080172;28;19909;-73
2022/02/24 03:24:10;;;;;;;;;;;9.20;87.10;;;;;;5080216;28;19962;-73
2022/02/24 03:26:36;;;;;;;;;;;9.20;87.40;;;;;;5079649;28;19909;-73
2022/02/24 03:29:02;;;;;;;;;;;9.20;88.50;;;;;;5080100;28;19931;-72
2022/02/24 03:31:27;;;;;;;;;;;9.20;87.40;;;;;;5079705;28;19999;-73
2022/02/24 03:33:56;;;;;;;;;;;9.20;87.80;;;;;;5079824;28;19908;-73
2022/02/24 03:36:21;;;;;;;;;;;9.20;88.30;;;;;;5079705;28;19910;-72
2022/02/24 03:38:47;;;;;;;;;;;9.20;88.00;;;;;;5079786;28;19912;-72
2022/02/24 03:41:13;;;;;;;;;;;9.20;88.70;;;;;;5079541;28;19916;-72
2022/02/24 03:43:38;;;;;;;;;;;9.20;87.80;;;;;;5079374;28;19921;-72
2022/02/24 03:46:04;;;;;;;;;;;9.20;87.60;;;;;;5075641;28;19916;-72
2022/02/24 03:48:30;;;;;;;;;;;9.20;88.20;;;;;;5070584;28;19962;-74
2022/02/24 03:50:55;;;;;;;;;;;9.10;87.70;;;;;;5079442;28;19909;-73
2022/02/24 03:53:21;;;;;;;;;;;9.20;88.60;;;;;;5079911;28;19915;-72
2022/02/24 03:55:46;;;;;;;;;;;9.20;88.70;;;;;;5079262;28;19915;-73
2022/02/24 03:58:12;;;;;;;;;;;9.20;88.00;;;;;;5079293;28;20287;-73
2022/02/24 04:00:38;;;;;;;;;;;9.20;88.20;;;;;;5079342;28;19909;-72
2022/02/24 04:03:03;;;;;;;;;;;9.20;88.80;;;;;;5079210;28;19959;-73
2022/02/24 04:05:29;;;;;;;;;;;9.20;88.40;;;;;;5079156;28;20466;-73
2022/02/24 04:07:55;;;;;;;;;;;9.20;88.30;;;;;;5079295;28;19914;-73
2022/02/24 04:10:20;;;;;;;;;;;9.10;88.20;;;;;;5079046;28;20295;-73
2022/02/24 04:12:46;;;;;;;;;;;9.10;88.70;;;;;;5078907;28;20046;-73
2022/02/24 04:15:11;;;;;;;;;;;9.10;88.50;;;;;;5079161;28;19908;-73
2022/02/24 04:17:37;;;;;;;;;;;9.10;89.00;;;;;;5079225;28;20391;-73
2022/02/24 04:20:03;;;;;;;;;;;9.10;89.00;;;;;;5078882;28;19951;-73
2022/02/24 04:22:28;;;;;;;;;;;9.10;89.10;;;;;;5078956;28;19951;-73
2022/02/24 04:24:57;;;;;;;;;;;9.10;89.80;;;;;;5078631;28;19912;-73
2022/02/24 04:27:22;;;;;;;;;;;9.10;89.80;;;;;;5078608;28;19908;-73
2022/02/24 04:29:49;;;;;;;;;;;9.10;89.70;;;;;;5078528;28;19916;-72
2022/02/24 04:32:15;;;;;;;;;;;9.20;90.20;;;;;;5078704;28;19944;-73
2022/02/24 04:34:40;;;;;;;;;;;9.20;90.00;;;;;;5078546;28;19916;-73
2022/02/24 04:37:06;;;;;;;;;;;9.20;90.00;;;;;;5078913;28;19956;-72
2022/02/24 04:39:32;;;;;;;;;;;9.20;89.70;;;;;;5078118;28;19913;-73
2022/02/24 04:41:58;;;;;;;;;;;9.20;89.80;;;;;;5078571;28;19908;-72
2022/02/24 04:44:23;;;;;;;;;;;9.20;89.90;;;;;;5077698;28;19921;-73
2022/02/24 04:46:49;;;;;;;;;;;9.10;89.50;;;;;;5050223;28;19916;-73
2022/02/24 04:49:15;;;;;;;;;;;9.10;89.40;;;;;;5075272;28;19908;-73
2022/02/24 04:51:40;;;;;;;;;;;9.10;89.80;;;;;;5078444;28;19912;-73
2022/02/24 04:54:06;;;;;;;;;;;9.10;89.80;;;;;;5078218;28;19950;-73
2022/02/24 04:56:31;;;;;;;;;;;9.10;89.70;;;;;;5078241;28;19909;-73
2022/02/24 04:58:57;;;;;;;;;;;9.10;90.00;;;;;;5078089;28;19916;-73
2022/02/24 05:01:23;;;;;;;;;;;9.10;89.90;;;;;;5078462;28;19916;-73
2022/02/24 05:03:48;;;;;;;;;;;9.10;90.20;;;;;;5077888;28;20379;-73
2022/02/24 05:06:14;;;;;;;;;;;9.10;89.70;;;;;;5078286;28;19916;-73
2022/02/24 05:08:39;;;;;;;;;;;9.10;89.80;;;;;;5078030;28;19913;-73
2022/02/24 05:11:05;;;;;;;;;;;9.10;90.00;;;;;;5078131;28;19915;-73
2022/02/24 05:13:31;;;;;;;;;;;9.00;89.90;;;;;;5077711;28;19909;-73
2022/02/24 05:15:56;;;;;;;;;;;9.00;89.70;;;;;;5078222;28;19912;-73
2022/02/24 05:18:22;;;;;;;;;;;9.00;89.50;;;;;;5077865;28;19912;-73
2022/02/24 05:20:48;;;;;;;;;;;8.90;89.10;;;;;;5078058;28;20444;-72
2022/02/24 05:23:13;;;;;;;;;;;8.90;89.40;;;;;;5077837;28;19955;-73
2022/02/24 05:25:39;;;;;;;;;;;8.90;89.60;;;;;;5078034;28;19909;-73
2022/02/24 05:28:05;;;;;;;;;;;8.90;89.10;;;;;;5077432;28;19908;-73
2022/02/24 05:30:31;;;;;;;;;;;8.90;88.60;;;;;;5077975;28;19916;-73
2022/02/24 05:32:57;;;;;;;;;;;8.80;88.70;;;;;;5077624;28;19908;-73
2022/02/24 05:35:22;;;;;;;;;;;8.80;89.30;;;;;;5077854;28;19916;-73
2022/02/24 05:37:48;;;;;;;;;;;8.80;89.10;;;;;;5077582;28;19916;-73
2022/02/24 05:40:14;;;;;;;;;;;8.80;88.70;;;;;;5077534;28;20291;-73
2022/02/24 05:42:40;;;;;;;;;;;8.70;88.10;;;;;;5077271;28;20276;-75
2022/02/24 05:45:05;;;;;;;;;;;8.70;88.30;;;;;;5077548;28;19921;-75
2022/02/24 05:47:31;;;;;;;;;;;8.60;88.50;;;;;;5064090;28;19909;-78
2022/02/24 05:49:57;;;;;;;;;;;8.50;88.20;;;;;;5077849;28;19913;-83
2022/02/24 05:52:22;;;;;;;;;;;8.50;88.70;;;;;;5059426;28;19939;-79
2022/02/24 05:54:48;;;;;;;;;;;8.50;89.10;;;;;;5077672;28;20375;-78
2022/02/24 05:57:14;;;;;;;;;;;8.50;88.80;;;;;;5080168;28;19974;-75
2022/02/24 05:59:39;;;;;;;;;;;8.40;88.00;;;;;;5081773;28;19916;-75
2022/02/24 06:02:05;;;;;;;;;;;8.40;88.00;;;;;;5081463;28;19908;-74
2022/02/24 06:04:31;;;;;;;;;;;8.30;88.40;;;;;;5081546;28;19916;-79
2022/02/24 06:06:56;;;;;;;;;;;8.30;88.30;;;;;;5081392;28;19959;-79
2022/02/24 06:09:22;;;;;;;;;;;8.30;88.50;;;;;;5063660;28;19958;-77
2022/02/24 06:11:49;;;;;;;;;;;8.20;88.30;;;;;;5075693;28;19989;-79
2022/02/24 06:14:16;;;;;;;;;;;8.10;88.30;;;;;;5081517;28;20003;-79
2022/02/24 06:16:41;;;;;;;;;;;8.20;89.00;;;;;;5081457;28;19913;-75
2022/02/24 06:19:07;;;;;;;;;;;8.10;89.00;;;;;;5081487;28;20046;-78
2022/02/24 06:21:32;;;;;;;;;;;8.20;89.50;;;;;;5081152;28;20148;-81
2022/02/24 06:23:58;;;;;;;;;;;8.20;89.70;;;;;;5081230;28;19908;-76
2022/02/24 06:26:24;;;;;;;;;;;8.30;89.80;;;;;;5080907;28;20523;-83
2022/02/24 06:28:49;;;;;;;;;;;8.30;89.90;;;;;;5081205;28;19913;-79
2022/02/24 06:31:15;;;;;;;;;;;8.30;89.60;;;;;;5081316;28;19908;-79
2022/02/24 06:33:41;;;;;;;;;;;8.40;90.10;;;;;;5080910;28;19954;-79
2022/02/24 06:36:06;;;;;;;;;;;8.50;90.30;;;;;;5080881;28;19915;-78
2022/02/24 06:38:32;;;;;;;;;;;8.50;90.30;;;;;;5080933;28;19920;-78
2022/02/24 06:40:58;;;;;;;;;;;8.50;90.20;;;;;;5080550;28;19909;-78
2022/02/24 06:43:23;;;;;;;;;;;8.50;90.30;;;;;;5080429;28;19920;-78
2022/02/24 06:45:49;;;;;;;;;;;8.60;90.50;;;;;;5078813;28;19931;-78
2022/02/24 06:48:16;;;;;;;;;;;8.60;90.40;;;;;;5069580;28;19939;-78
2022/02/24 06:50:42;;;;;;;;;;;8.70;90.50;;;;;;5080743;28;19915;-78
2022/02/24 06:53:07;;;;;;;;;;;8.70;90.60;;;;;;5080886;28;19908;-77
2022/02/24 06:55:33;;;;;;;;;;;8.70;90.60;;;;;;5080502;28;19909;-77
2022/02/24 06:57:59;;;;;;;;;;;8.70;90.40;;;;;;5080657;28;19908;-76
2022/02/24 07:00:24;;;;;;;;;;;8.60;90.10;;;;;;5080459;28;19908;-76
2022/02/24 07:02:52;;;;;;;;;;;8.50;90.10;;;;;;5080093;28;19919;-76
2022/02/24 07:05:18;;;;;;;;;;;8.50;90.40;;;;;;5074527;28;20041;-77
2022/02/24 07:07:44;;;;;;;;;;;8.50;90.70;;;;;;5079045;28;19916;-76
2022/02/24 07:10:12;;;;;;;;;;;8.40;90.50;;;;;;5080269;28;19916;-77
2022/02/24 07:12:38;;;;;;;;;;;8.30;90.60;;;;;;5080110;28;19908;-76
2022/02/24 07:15:04;;;;;;;;;;;8.30;90.70;;;;;;5080228;28;19909;-76
2022/02/24 07:17:30;;;;;;;;;;;8.30;90.80;;;;;;5080545;28;19912;-77
2022/02/24 07:19:56;;;;;;;;;;;8.30;91.00;;;;;;5080067;28;19913;-76
2022/02/24 07:22:21;;;;;;;;;;;8.20;90.90;;;;;;5080332;28;19908;-76
2022/02/24 07:24:47;;;;;;;;;;;8.20;90.90;;;;;;5079904;28;20287;-77
2022/02/24 07:27:13;;;;;;;;;;;8.20;91.00;;;;;;5080057;28;19908;-76
2022/02/24 07:29:38;;;;;;;;;;;8.20;91.40;;;;;;5079920;28;19914;-77
2022/02/24 07:32:04;;;;;;;;;;;8.20;91.50;;;;;;5080122;28;20277;-77
2022/02/24 07:34:30;;;;;;;;;;;8.20;91.20;;;;;;5079746;28;19913;-76
2022/02/24 07:36:56;;;;;;;;;;;8.20;91.10;;;;;;5061943;28;20283;-77
2022/02/24 07:39:21;;;;;;;;;;;8.20;91.20;;;;;;5079402;28;19913;-77
2022/02/24 07:41:47;;;;;;;;;;;8.20;91.30;;;;;;5079504;28;19915;-76
2022/02/24 07:44:14;;;;;;;;;;;8.20;91.30;;;;;;5079392;28;19986;-77
2022/02/24 07:46:39;;;;;;;;;;;8.20;91.40;;;;;;5070793;28;19908;-75
2022/02/24 07:49:05;;;;;;;;;;;8.30;91.80;;;;;;5075085;28;19916;-76
2022/02/24 07:51:31;;;;;;;;;;;8.30;91.90;;;;;;5079956;28;19930;-76
2022/02/24 07:53:56;;;;;;;;;;;8.40;92.10;;;;;;5079583;28;19932;-76
2022/02/24 07:56:22;;;;;;;;;;;8.50;92.60;;;;;;5079339;28;20406;-76
2022/02/24 07:58:48;;;;;;;;;;;8.50;92.40;;;;;;5079340;28;19913;-76
2022/02/24 08:01:15;;;;;;;;;;;8.60;92.30;;;;;;5079742;28;19916;-76
2022/02/24 08:03:41;;;;;;;;;;;8.60;92.20;;;;;;5079086;28;19915;-76
2022/02/24 08:06:06;;;;;;;;;;;8.60;92.00;;;;;;5079367;28;19998;-76
2022/02/24 08:08:32;;;;;;;;;;;8.60;91.80;;;;;;5079201;28;19915;-76
2022/02/24 08:10:57;;;;;;;;;;;8.70;92.20;;;;;;5079200;28;19908;-76
2022/02/24 08:13:23;;;;;;;;;;;8.70;92.00;;;;;;5078827;28;20432;-76
2022/02/24 08:15:49;;;;;;;;;;;8.80;92.10;;;;;;5079386;28;19908;-76
2022/02/24 08:18:15;;;;;;;;;;;8.90;92.10;;;;;;5078432;28;20306;-76
2022/02/24 08:20:41;;;;;;;;;;;9.00;92.40;;;;;;5078835;28;20003;-76
2022/02/24 08:23:06;;;;;;;;;;;9.10;92.40;;;;;;5078970;28;19958;-76
2022/02/24 08:25:32;;;;;;;;;;;9.10;92.40;;;;;;5078917;28;20007;-76
2022/02/24 08:27:59;;;;;;;;;;;9.30;92.40;;;;;;5078589;28;19962;-76
2022/02/24 08:30:25;;;;;;;;;;;9.50;92.50;;;;;;5060972;28;20046;-76
2022/02/24 08:32:51;;;;;;;;;;;9.80;92.20;;;;;;5078596;28;19936;-76
2022/02/24 08:35:18;;;;;;;;;;;9.90;91.80;;;;;;5078837;28;19909;-76
2022/02/24 08:37:45;;;;;;;;;;;10.10;91.50;;;;;;5078592;28;19944;-76
2022/02/24 08:40:11;;;;;;;;;;;10.20;91.40;;;;;;5068853;28;19909;-76
2022/02/24 08:42:36;;;;;;;;;;;10.20;91.00;;;;;;5075477;28;20003;-77
2022/02/24 08:45:02;;;;;;;;;;;10.30;91.00;;;;;;5057134;28;20307;-76
2022/02/24 08:47:28;;;;;;;;;;;10.40;91.10;;;;;;5045196;28;19936;-76
2022/02/24 08:49:54;;;;;;;;;;;10.40;90.60;;;;;;5058574;28;19909;-76
2022/02/24 08:52:19;;;;;;;;;;;10.50;90.50;;;;;;5057015;28;19913;-76
2022/02/24 08:54:46;;;;;;;;;;;10.50;90.60;;;;;;5058485;28;19940;-76
2022/02/24 08:57:12;;;;;;;;;;;10.60;90.00;;;;;;5057998;28;19970;-76
2022/02/24 08:59:38;;;;;;;;;;;10.70;90.00;;;;;;5058509;28;20446;-76
2022/02/24 09:02:04;;;;;;;;;;;10.80;89.90;;;;;;5058174;28;20459;-75
2022/02/24 09:04:30;;;;;;;;;;;10.90;89.70;;;;;;5058328;28;19948;-76
2022/02/24 09:06:56;;;;;;;;;;;11.00;90.00;;;;;;5057990;28;20418;-76
2022/02/24 09:09:24;;;;;;;;;;;11.10;89.40;;;;;;5058325;28;20007;-76
2022/02/24 09:11:50;;;;;;;;;;;11.30;88.00;;;;;;5057751;28;19955;-77
2022/02/24 09:14:15;;;;;;;;;;;11.50;88.50;;;;;;5058061;28;19912;-76
2022/02/24 09:16:43;;;;;;;;;;;11.80;88.20;;;;;;5057959;28;19915;-76
2022/02/24 09:19:09;;;;;;;;;;;12.50;86.50;;;;;;5058314;28;19978;-76
2022/02/24 09:21:35;;;;;;;;;;;13.00;83.60;;;;;;5057781;28;19932;-76
2022/02/24 09:24:01;;;;;;;;;;;13.40;81.10;;;;;;5058054;28;19909;-76
2022/02/24 09:26:26;;;;;;;;;;;13.40;80.80;;;;;;5057627;28;20372;-76
2022/02/24 09:28:52;;;;;;;;;;;13.40;80.10;;;;;;5057986;28;20359;-75
2022/02/24 09:31:18;;;;;;;;;;;13.40;79.00;;;;;;5057591;28;19912;-76
2022/02/24 09:33:43;;;;;;;;;;;13.20;78.80;;;;;;5057769;28;19916;-75
2022/02/24 09:36:09;;;;;;;;;;;12.90;79.90;;;;;;5057716;28;20463;-76
2022/02/24 09:38:34;;;;;;;;;;;12.80;79.90;;;;;;5057843;28;19980;-75
2022/02/24 09:41:01;;;;;;;;;;;12.60;80.50;;;;;;5057246;28;19909;-76
2022/02/24 09:43:29;;;;;;;;;;;12.50;80.30;;;;;;5062471;28;19921;-75
2022/02/24 09:45:57;;;;;;;;;;;12.40;80.80;;;;;;5074873;28;19908;-75
2022/02/24 09:48:28;;;;;;;;;;;12.30;81.30;;;;;;5067731;28;20363;-75
2022/02/24 09:50:54;;;;;;;;;;;12.30;81.50;;;;;;5077615;28;19991;-76
2022/02/24 09:53:19;;;;;;;;;;;12.30;81.50;;;;;;5077918;28;19971;-75
2022/02/24 09:55:45;;;;;;;;;;;12.50;81.40;;;;;;5059391;28;19931;-76
2022/02/24 09:58:11;;;;;;;;;;;12.60;81.10;;;;;;5077315;28;20387;-76
2022/02/24 10:00:37;;;;;;;;;;;12.70;80.70;;;;;;5077532;28;19913;-76
2022/02/24 10:03:22;;;;;;;;;;;12.80;80.40;;;;;;5077417;28;19917;-76
2022/02/24 10:05:48;;;;;;;;;;;12.80;80.40;;;;;;5066100;28;20298;-75
2022/02/24 10:08:13;;;;;;;;;;;12.80;80.20;;;;;;5059454;28;19909;-76
2022/02/24 10:10:40;;;;;;;;;;;12.70;80.80;;;;;;5059489;28;19962;-76
2022/02/24 10:13:08;;;;;;;;;;;12.70;81.10;;;;;;5077264;28;19909;-76
2022/02/24 10:15:39;;;;;;;;;;;12.60;81.10;;;;;;5059540;28;19909;-76
2022/02/24 10:18:05;;;;;;;;;;;12.50;81.10;;;;;;5059223;28;19908;-76
2022/02/24 10:20:53;;;;;;;;;;;12.40;81.40;;;;;;5077552;28;19952;-76
2022/02/24 10:23:20;;;;;;;;;;;12.30;81.70;;;;;;5077265;28;20512;-76
2022/02/24 10:25:52;;;;;;;;;;;12.30;82.20;;;;;;5077309;28;20552;-75
2022/02/24 10:28:36;;;;;;;;;;;12.20;82.80;;;;;;5076934;28;19909;-76
2022/02/24 10:31:05;;;;;;;;;;;12.00;84.00;;;;;;5077178;28;19999;-76
2022/02/24 10:33:31;;;;;;;;;;;11.80;83.90;;;;;;5077319;28;19909;-77
2022/02/24 10:36:10;;;;;;;;;;;11.60;84.20;;;;;;5059177;28;19908;-77
2022/02/24 10:38:37;;;;;;;;;;;11.40;84.50;;;;;;5077291;28;19969;-76
2022/02/24 10:41:03;;;;;;;;;;;11.30;85.10;;;;;;5076710;28;20386;-77
2022/02/24 10:43:33;;;;;;;;;;;11.10;85.40;;;;;;5061988;28;19920;-76
2022/02/24 10:46:07;;;;;;;;;;;11.00;85.50;;;;;;5059350;28;20015;-77
2022/02/24 10:48:46;;;;;;;;;;;10.90;85.50;;;;;;5072116;28;19915;-77
2022/02/24 10:51:12;;;;;;;;;;;10.90;86.00;;;;;;5080683;28;19948;-76
2022/02/24 10:53:38;;;;;;;;;;;11.00;87.00;;;;;;5080810;28;19909;-77
2022/02/24 10:56:07;;;;;;;;;;;11.50;87.40;;;;;;5080316;28;19908;-76
2022/02/24 10:58:33;;;;;;;;;;;11.90;84.60;;;;;;5080210;28;19913;-78
2022/02/24 11:01:09;;;;;;;;;;;12.10;82.00;;;;;;5080711;28;19999;-78
2022/02/24 11:03:35;;;;;;;;;;;12.20;80.10;;;;;;5080277;28;20011;-78
2022/02/24 11:06:02;;;;;;;;;;;12.10;80.10;;;;;;5080712;28;20290;-78
2022/02/24 11:08:29;;;;;;;;;;;12.10;80.40;;;;;;5079093;28;19912;-79
2022/02/24 11:10:56;;;;;;;;;;;12.10;80.00;;;;;;5061991;28;20291;-79
2022/02/24 11:13:22;;;;;;;;;;;12.10;79.80;;;;;;5076898;28;19908;-75
2022/02/24 11:15:48;;;;;;;;;;;12.10;80.20;;;;;;5053878;28;19908;-73
2022/02/24 11:18:14;;;;;;;;;;;12.10;79.50;;;;;;5059472;28;20003;-72
2022/02/24 11:20:40;;;;;;;;;;;12.10;79.50;;;;;;5073552;28;19912;-74
2022/02/24 11:23:06;;;;;;;;;;;12.10;79.30;;;;;;5061461;28;20375;-72
2022/02/24 11:25:36;;;;;;;;;;;12.00;79.20;;;;;;5061947;28;19916;-71
2022/02/24 11:28:02;;;;;;;;;;;12.00;79.00;;;;;;5079531;28;19908;-73
2022/02/24 11:30:29;;;;;;;;;;;12.00;78.50;;;;;;5079698;28;19908;-72
2022/02/24 11:32:55;;;;;;;;;;;12.00;76.40;;;;;;5074131;28;19908;-73
2022/02/24 11:35:22;;;;;;;;;;;12.10;75.90;;;;;;5080137;28;20298;-73
2022/02/24 11:37:49;;;;;;;;;;;12.10;75.60;;;;;;5079663;28;20272;-73
2022/02/24 11:40:15;;;;;;;;;;;12.20;74.30;;;;;;5068907;28;20277;-74
2022/02/24 11:42:41;;;;;;;;;;;12.40;74.30;;;;;;5077811;28;19912;-74
2022/02/24 11:45:25;;;;;;;;;;;12.50;75.00;;;;;;5079368;28;20322;-74
2022/02/24 11:48:06;;;;;;;;;;;12.70;72.40;;;;;;5066585;28;19919;-74
2022/02/24 11:50:43;;;;;;;;;;;12.60;72.10;;;;;;5075403;28;19915;-73
2022/02/24 11:53:29;;;;;;;;;;;12.40;70.00;;;;;;5079824;28;19951;-74
2022/02/24 11:55:55;;;;;;;;;;;12.20;71.10;;;;;;5058830;28;19908;-73
2022/02/24 11:58:30;;;;;;;;;;;12.10;72.40;;;;;;5079210;28;19919;-73
2022/02/24 12:01:19;;;;;;;;;;;11.80;71.10;;;;;;5067520;28;19908;-74
2022/02/24 12:03:45;;;;;;;;;;;11.50;71.30;;;;;;5065854;28;19909;-73
2022/02/24 12:06:11;;;;;;;;;;;11.20;71.30;;;;;;5079324;28;19908;-73
2022/02/24 12:08:55;;;;;;;;;;;11.00;72.00;;;;;;5079004;28;19909;-73
2022/02/24 12:11:40;;;;;;;;;;;10.80;71.50;;;;;;5078888;28;19908;-72
2022/02/24 12:14:21;;;;;;;;;;;10.70;71.40;;;;;;5078679;28;19932;-73
2022/02/24 12:17:05;;;;;;;;;;;10.70;73.00;;;;;;5078869;28;19931;-72
2022/02/24 12:19:46;;;;;;;;;;;10.70;72.30;;;;;;5078811;28;19919;-73
2022/02/24 12:22:38;;;;;;;;;;;10.70;72.70;;;;;;5076880;28;19909;-72
2022/02/24 12:25:04;;;;;;;;;;;10.70;71.90;;;;;;5075720;28;19980;-73
2022/02/24 12:27:29;;;;;;;;;;;10.70;71.50;;;;;;5078701;28;20430;-72
2022/02/24 12:30:03;;;;;;;;;;;10.70;72.00;;;;;;5060386;28;19980;-73
2022/02/24 12:32:42;;;;;;;;;;;10.90;73.40;;;;;;5078483;28;19909;-73
2022/02/24 12:35:09;;;;;;;;;;;11.20;73.60;;;;;;5078831;28;19908;-73
2022/02/24 12:37:35;;;;;;;;;;;11.50;73.00;;;;;;5078496;28;19976;-73
2022/02/24 12:40:03;;;;;;;;;;;11.90;72.80;;;;;;5078608;28;20396;-73
2022/02/24 12:42:30;;;;;;;;;;;12.20;70.60;;;;;;5078127;28;19919;-73
2022/02/24 12:44:58;;;;;;;;;;;12.50;69.90;;;;;;5078043;28;20349;-73
2022/02/24 12:47:25;;;;;;;;;;;12.60;68.40;;;;;;5078254;28;19908;-72
2022/02/24 12:49:57;;;;;;;;;;;12.50;66.80;;;;;;5078692;28;19918;-73
2022/02/24 12:52:26;;;;;;;;;;;12.30;67.60;;;;;;5077394;28;20454;-73
2022/02/24 12:54:51;;;;;;;;;;;12.30;68.70;;;;;;5078323;28;20910;-73
2022/02/24 12:57:18;;;;;;;;;;;12.20;68.90;;;;;;5078181;28;19908;-73
2022/02/24 12:59:44;;;;;;;;;;;12.40;70.20;;;;;;5078093;28;20004;-74
2022/02/24 13:02:10;;;;;;;;;;;12.70;69.60;;;;;;5077925;28;19909;-74
2022/02/24 13:04:38;;;;;;;;;;;13.20;69.60;;;;;;5073645;28;20004;-74
2022/02/24 13:07:03;;;;;;;;;;;13.60;67.10;;;;;;5077957;28;19923;-74
2022/02/24 13:09:44;;;;;;;;;;;14.00;66.50;;;;;;5077976;28;19909;-73
2022/02/24 13:12:11;;;;;;;;;;;14.30;65.90;;;;;;5077687;28;19909;-74
2022/02/24 13:14:43;;;;;;;;;;;14.60;64.70;;;;;;5077970;28;20280;-72
2022/02/24 13:17:10;;;;;;;;;;;14.70;59.80;;;;;;5074009;28;19916;-72
2022/02/24 13:19:37;;;;;;;;;;;14.80;59.70;;;;;;5078006;28;19913;-72
2022/02/24 13:22:03;;;;;;;;;;;14.80;59.70;;;;;;5077038;28;19909;-73
2022/02/24 13:24:31;;;;;;;;;;;14.60;61.00;;;;;;5071815;28;19943;-73
2022/02/24 13:26:58;;;;;;;;;;;14.30;58.50;;;;;;5077469;28;19908;-72
2022/02/24 13:29:24;;;;;;;;;;;13.60;57.20;;;;;;5077642;28;19908;-72
2022/02/24 13:31:51;;;;;;;;;;;13.20;61.00;;;;;;5077694;28;19982;-72
2022/02/24 13:34:18;;;;;;;;;;;12.60;61.90;;;;;;5077712;28;20275;-72
2022/02/24 13:36:44;;;;;;;;;;;12.20;63.90;;;;;;5077844;28;20360;-73
2022/02/24 13:39:11;;;;;;;;;;;12.00;66.10;;;;;;5075085;28;20396;-73
2022/02/24 13:41:36;;;;;;;;;;;12.00;68.10;;;;;;5075615;28;19908;-73
2022/02/24 13:44:02;;;;;;;;;;;12.20;68.30;;;;;;5077478;28;20052;-73
2022/02/24 13:46:39;;;;;;;;;;;12.40;67.40;;;;;;5074969;28;19940;-73
2022/02/24 13:49:09;;;;;;;;;;;12.40;66.60;;;;;;5059536;28;19912;-73
2022/02/24 13:51:35;;;;;;;;;;;12.30;65.30;;;;;;5077929;28;19914;-73
2022/02/24 13:54:01;;;;;;;;;;;12.20;64.60;;;;;;5077332;28;19909;-74
2022/02/24 13:56:26;;;;;;;;;;;12.10;65.10;;;;;;5077395;28;20375;-74
2022/02/24 13:58:57;;;;;;;;;;;12.00;64.60;;;;;;5077164;28;19919;-74
2022/02/24 14:01:23;;;;;;;;;;;12.00;65.60;;;;;;5077820;28;19908;-74
2022/02/24 14:03:50;;;;;;;;;;;11.80;63.90;;;;;;5073081;28;19916;-73
2022/02/24 14:06:17;;;;;;;;;;;11.80;65.10;;;;;;5077485;28;19987;-74
2022/02/24 14:08:46;;;;;;;;;;;11.80;66.00;;;;;;5077349;28;20359;-73
2022/02/24 14:11:15;;;;;;;;;;;11.80;63.90;;;;;;5077482;28;20363;-73
2022/02/24 14:13:41;;;;;;;;;;;11.80;65.10;;;;;;5076883;28;19908;-74
2022/02/24 14:16:07;;;;;;;;;;;11.80;64.60;;;;;;5077645;28;20264;-73
2022/02/24 14:18:33;;;;;;;;;;;11.70;63.10;;;;;;5080716;28;19965;-73
2022/02/24 14:20:59;;;;;;;;;;;11.80;64.10;;;;;;5081608;28;19909;-73
2022/02/24 14:23:25;;;;;;;;;;;11.80;65.70;;;;;;5074661;28;19954;-74